x

North Channel East (45154) Wave Buoy

1:00am - Tue 7th Jul 2015 All times are CDT. -5 hours from GMT.

  • Sig Wave height 1.6ft
  • Peak Period 3s
  • Wind
    18mph, 20mph gusts
  • Sea Temp 64°f
  • Air Temp 68°f
  • Sea Pressure 1006.6mb
  • North Channel East
  • North Channel East

More Historic Weather Station data

Upgrade to MSW Pro to gain access to the past 30 days of data for over 8000 Wavebouys and Weather Stations around the globe.

Join Pro

Comparision Forecast

View Surf forecast
   
Tue 07/07 1:00am 1.6ft 3s 18 20 mph 1006.6mb 64f 68f
12:00am 1.6ft 3s 13 18 mph 1007.2mb 64f 67f
Mon 07/06 11:00pm 1.6ft 3s 16 18 mph 1008mb 64f 67f
10:00pm 1.3ft 3s 16 20 mph 1008.7mb 64f 67f
9:00pm 1.6ft 3s 16 18 mph 1009.5mb 64f 68f
8:00pm 1.3ft 3s 11 18 mph 1010.1mb 64f 67f
7:00pm 1.3ft 3s 13
mph
1010.3mb 64f 68f
6:00pm 1.3ft 3s 16 18 mph 1011.1mb 65f 69f
5:00pm 1.3ft 3s 13 16 mph 1012.1mb 65f 69f
4:00pm 1ft 2s 11 16 mph 1012.5mb 65f 68f
3:00pm 0.7ft 2s 9 11 mph 1013.2mb 65f 67f
2:00pm 0.7ft 2s 9
mph
1013.9mb 65f 68f
1:00pm 0.7ft 2s 7 9 mph 1014.4mb 64f 67f
12:00pm 0.7ft 2s 9 11 mph 1014.4mb 64f 68f
11:00am 0.7ft 2s 11 13 mph 1014.7mb 64f 68f
10:00am 1ft 2s 9 11 mph 1015.1mb 64f 67f
9:00am 1ft 2s 11 13 mph 1015.3mb 63f 67f
8:00am 1ft 2s 11 13 mph 1015.6mb 63f 66f
7:00am 1ft 2s 11 13 mph 1015.8mb 64f 65f
6:00am 1ft 2s 13 16 mph 1015.7mb 64f 64f
5:00am 1ft 2s 13 16 mph 1015.3mb 63f 64f
4:00am 1.3ft 3s 13 16 mph 1016mb 63f 64f
3:00am 1.3ft 3s 16 18 mph 1015.9mb 64f 63f
2:00am 1.3ft 2s 13 16 mph 1016.1mb 64f 63f
1:00am 1ft 2s 13 16 mph 1015.8mb 64f 64f
12:00am 1ft 2s 9
mph
1016.1mb 64f 66f
Sun 07/05 11:00pm 1ft 3s 9 11 mph 1016.5mb 64f 65f
10:00pm 0.7ft 2s 7 9 mph 1016.9mb 64f 65f
9:00pm 0.7ft 2s 9 11 mph 1017.2mb 64f 65f
8:00pm 0.7ft 2s 2 4 mph 1017.7mb 65f 65f
7:00pm 0.7ft 2s 9 11 mph 1017.6mb 65f 67f
6:00pm 0.7ft 2s 9 11 mph 1017.9mb 65f 68f
5:00pm 0.7ft 2s 7 9 mph 1018mb 65f 68f
4:00pm 0.7ft 2s 9
mph
1018.4mb 65f 68f
3:00pm 0.7ft 2s 11 13 mph 1018.5mb 66f 69f
2:00pm  -  5s 4 9 mph 1018.6mb 70f 71f
1:00pm  -  4s 4
mph
1019mb 68f 68f
12:00pm  -  2s 2 4 mph 1019mb 67f 67f
11:00am 0.3ft 2s 2
mph
1019.1mb 65f 66f
10:00am 0.3ft 2s  -  2 mph 1019.5mb 64f 66f
9:00am 0.3ft 2s  -  2 mph 1019.5mb 63f 63f
8:00am 0.3ft 2s 4
mph
1019.5mb 63f 62f
7:00am 0.3ft 2s 7 9 mph 1018.7mb 62f 62f
6:00am 0.3ft 2s 4
mph
1018.3mb 62f 62f
5:00am 0.3ft 2s 7
mph
1017.8mb 62f 62f
4:00am 0.7ft 2s 7
mph
1017.6mb 62f 62f
3:00am 0.7ft 2s 9 11 mph 1017.4mb 63f 62f
2:00am 0.7ft 3s 7 9 mph 1017.3mb 63f 63f
1:00am 0.7ft 3s 4 7 mph 1016.9mb 63f 63f
12:00am 0.7ft 2s 9
mph
1016.2mb 63f 63f
Sat 07/04 11:00pm 0.7ft 2s 9 11 mph 1016mb 63f 64f
10:00pm 0.7ft 2s 9 11 mph 1015.8mb 63f 64f
9:00pm 0.7ft 2s 9 11 mph 1015.6mb 63f 65f
8:00pm 0.7ft 2s 9 11 mph 1014.9mb 63f 65f
7:00pm 0.7ft 2s 11 13 mph 1014.3mb 63f 66f
6:00pm 0.7ft 2s 9
mph
1014.2mb 63f 67f
5:00pm 0.7ft 2s 9 11 mph 1014.2mb 63f 66f
4:00pm 1ft 2s 11 13 mph 1014.1mb 63f 65f
3:00pm 1ft 3s 11 13 mph 1014.3mb 63f 65f
2:00pm 0.7ft 2s 11 16 mph 1014mb 63f 64f
1:00pm 0.7ft 2s 9 11 mph 1013.9mb 63f 63f
12:00pm 0.3ft 2s 11
mph
1013.8mb 63f 63f
11:00am 0.3ft 2s 9 11 mph 1014mb 63f 62f
8:00am 0.3ft 2s 7
mph
1013.6mb 62f 61f
7:00am 0.3ft 2s 4 7 mph 1013.3mb 61f 61f
6:00am 0.3ft 2s 9
mph
1013.1mb 61f 60f
5:00am 0.3ft 2s 7
mph
1012.5mb 61f 60f
4:00am 0.3ft 2s 7 9 mph 1012.3mb 61f 60f
3:00am 0.3ft 2s 2
mph
1012.5mb 61f 60f
2:00am 0.3ft 2s 2 4 mph 1012.6mb 61f 60f
1:00am 0.3ft 2s 7
mph
1012.4mb 62f 60f
12:00am 0.7ft 2s 7 9 mph 1012.4mb 62f 61f
Fri 07/03 11:00pm 0.7ft 2s 7 9 mph 1012.4mb 62f 61f
10:00pm 1ft 2s 9 11 mph 1012.6mb 62f 61f
9:00pm 1ft 3s 11 13 mph 1012.7mb 62f 61f
8:00pm 1.3ft 3s 13 16 mph 1012.6mb 62f 62f
7:00pm 1.3ft 3s 13 16 mph 1012.7mb 62f 63f
6:00pm 1.3ft 3s 13 16 mph 1012.6mb 62f 63f
5:00pm 1.3ft 3s 13 16 mph 1012.9mb 62f 64f
3:00pm 1.3ft 3s 13 18 mph 1013.1mb 62f 65f
2:00pm 1.3ft 2s 9
mph
1013.5mb 62f 63f
1:00pm 1ft 2s 11 13 mph 1013.7mb 62f 63f
12:00pm 1.3ft 3s 9 11 mph 1014mb 62f 63f
11:00am 1.3ft 3s 16 18 mph 1014mb 62f 64f
10:00am 1.3ft 3s 13 16 mph 1014.3mb 62f 62f
9:00am 1.3ft 3s 13
mph
1014.4mb 62f 62f
8:00am 1ft 3s 11 13 mph 1014.9mb 62f 62f